Time;durP1;ratioP1;P1;durP2;ratioP2;P2;SDS_P1;SDS_P2;PMS_P1;PMS_P2;Temp;Humidity;BMP_temperature;BMP_pressure;BME280_temperature;BME280_humidity;BME280_pressure;Samples;Min_cycle;Max_cycle;Signal;HPM_P1;HPM_P2
2022/02/23 00:01:18;;;;;;;;;5.75;4.50;;;;;12.42;61.85;102149.34;5064931;28;45421;-51
2022/02/23 00:03:44;;;;;;;;;5.50;4.00;;;;;12.41;62.10;102147.56;5066718;28;45287;-51
2022/02/23 00:06:09;;;;;;;;;6.50;4.25;;;;;12.41;62.04;102144.06;5062980;28;45275;-50
2022/02/23 00:08:35;;;;;;;;;6.25;5.50;;;;;12.40;61.88;102147.56;5062694;28;45311;-48
2022/02/23 00:11:01;;;;;;;;;6.75;6.75;;;;;12.39;61.87;102151.97;5062655;28;45230;-51
2022/02/23 00:13:28;;;;;;;;;5.50;5.00;;;;;12.39;61.67;102153.72;5061458;28;45258;-51
2022/02/23 00:15:54;;;;;;;;;8.00;4.75;;;;;12.37;62.14;102160.78;5061756;28;45281;-51
2022/02/23 00:18:21;;;;;;;;;5.50;5.00;;;;;12.34;61.89;102151.09;5062551;28;45342;-49
2022/02/23 00:20:47;;;;;;;;;7.00;6.00;;;;;12.32;62.02;102144.94;5062173;28;46286;-51
2022/02/23 00:23:12;;;;;;;;;8.25;5.50;;;;;12.32;61.95;102155.47;5062646;28;45248;-52
2022/02/23 00:25:38;;;;;;;;;9.00;6.50;;;;;12.30;61.93;102152.84;5062579;28;45281;-48
2022/02/23 00:28:04;;;;;;;;;5.00;5.00;;;;;12.29;61.98;102156.34;5062590;28;45158;-52
2022/02/23 00:30:29;;;;;;;;;9.00;6.00;;;;;12.28;61.66;102148.47;5062503;28;46143;-50
2022/02/23 00:32:55;;;;;;;;;5.00;5.00;;;;;12.26;62.03;102150.19;5062555;28;45434;-50
2022/02/23 00:35:20;;;;;;;;;8.00;4.75;;;;;12.25;61.95;102153.72;5062339;28;45248;-50
2022/02/23 00:37:46;;;;;;;;;5.75;4.00;;;;;12.23;61.99;102147.56;5062582;28;45235;-52
2022/02/23 00:40:12;;;;;;;;;6.75;5.00;;;;;12.21;61.76;102147.56;5062115;28;46247;-51
2022/02/23 00:42:37;;;;;;;;;7.75;6.25;;;;;12.19;61.91;102150.19;5062311;28;45362;-51
2022/02/23 00:45:03;;;;;;;;;9.00;4.75;;;;;12.18;61.75;102142.28;5062497;28;45396;-49
2022/02/23 00:47:28;;;;;;;;;9.25;7.00;;;;;12.18;61.78;102156.31;5062176;28;45308;-49
2022/02/23 00:49:53;;;;;;;;;6.00;5.00;;;;;12.17;61.59;102153.69;5060969;28;46188;-50
2022/02/23 00:52:19;;;;;;;;;7.75;4.50;;;;;12.15;61.82;102152.81;5062195;28;45403;-52
2022/02/23 00:54:44;;;;;;;;;8.75;6.25;;;;;12.14;61.78;102154.56;5060970;28;45346;-56
2022/02/23 00:57:10;;;;;;;;;4.50;3.75;;;;;12.14;61.74;102153.72;5060775;28;45608;-50
2022/02/23 00:59:36;;;;;;;;;7.25;7.25;;;;;12.14;61.94;102167.75;5060582;28;46844;-50
2022/02/23 01:02:02;;;;;;;;;3.75;3.00;;;;;12.10;61.56;102158.09;5068474;28;45299;-50
2022/02/23 01:04:27;;;;;;;;;6.50;4.00;;;;;12.08;61.58;102153.69;5062047;28;45314;-51
2022/02/23 01:06:52;;;;;;;;;4.25;4.00;;;;;12.07;61.78;102154.56;5060396;28;45452;-51
2022/02/23 01:09:18;;;;;;;;;5.75;3.25;;;;;12.03;61.52;102156.31;5060370;28;46795;-52
2022/02/23 01:11:43;;;;;;;;;9.50;5.75;;;;;12.01;61.62;102161.59;5062036;28;45317;-49
2022/02/23 01:14:09;;;;;;;;;4.00;4.00;;;;;11.98;61.54;102164.19;5060823;28;45236;-51
2022/02/23 01:16:35;;;;;;;;;6.50;3.25;;;;;11.95;61.67;102165.91;5060580;28;45470;-51
2022/02/23 01:19:01;;;;;;;;;6.75;4.50;;;;;11.94;61.50;102175.56;5061804;28;45254;-51
2022/02/23 01:21:27;;;;;;;;;6.00;4.00;;;;;11.89;61.42;102161.50;5061559;28;45573;-49
2022/02/23 01:23:53;;;;;;;;;9.00;5.25;;;;;11.89;61.51;102169.41;5061665;28;45330;-50
2022/02/23 01:26:18;;;;;;;;;5.50;4.75;;;;;11.89;61.49;102169.41;5061623;28;45265;-51
2022/02/23 01:28:44;;;;;;;;;6.75;5.50;;;;;11.86;61.32;102172.03;5061599;28;45394;-51
2022/02/23 01:31:09;;;;;;;;;6.25;4.00;;;;;11.83;61.68;102172.88;5061523;28;45465;-49
2022/02/23 01:33:35;;;;;;;;;5.00;4.25;;;;;11.80;61.54;102169.41;5060496;28;45307;-51
2022/02/23 01:36:00;;;;;;;;;6.25;4.25;;;;;11.78;61.62;102169.38;5061438;28;45454;-50
2022/02/23 01:38:25;;;;;;;;;5.50;4.00;;;;;11.77;61.58;102169.38;5061479;28;46136;-51
2022/02/23 01:40:51;;;;;;;;;6.50;4.25;;;;;11.75;61.36;102165.84;5061285;28;45391;-50
2022/02/23 01:43:17;;;;;;;;;8.25;4.50;;;;;11.70;61.49;102169.34;5061627;28;45426;-48
2022/02/23 01:45:42;;;;;;;;;6.75;4.75;;;;;11.71;61.48;102176.38;5060206;28;45190;-50
2022/02/23 01:48:07;;;;;;;;;4.25;4.00;;;;;11.68;61.55;102167.56;5061366;28;45213;-49
2022/02/23 01:50:33;;;;;;;;;7.25;5.25;;;;;11.62;61.33;102171.09;5061212;28;45268;-51
2022/02/23 01:52:59;;;;;;;;;8.50;6.00;;;;;11.63;61.39;102183.34;5060192;28;45461;-49
2022/02/23 01:55:24;;;;;;;;;7.25;5.00;;;;;11.61;61.52;102182.47;5061298;28;45461;-52
2022/02/23 01:57:50;;;;;;;;;5.75;5.00;;;;;11.60;61.53;102177.22;5061153;28;46352;-51
2022/02/23 02:00:17;;;;;;;;;6.75;4.00;;;;;11.58;61.57;102178.94;5060982;28;45239;-52
2022/02/23 02:02:44;;;;;;;;;10.00;5.00;;;;;11.54;61.51;102178.06;5066909;28;45407;-51
2022/02/23 02:05:10;;;;;;;;;8.50;4.50;;;;;11.52;61.51;102178.06;5059659;28;45384;-51
2022/02/23 02:07:35;;;;;;;;;5.25;4.75;;;;;11.49;61.75;102183.28;5060743;28;45463;-52
2022/02/23 02:10:03;;;;;;;;;5.75;5.00;;;;;11.50;61.45;102192.09;5060768;28;45256;-50
2022/02/23 02:12:29;;;;;;;;;7.00;4.00;;;;;11.48;61.47;102183.28;5061081;28;45220;-51
2022/02/23 02:14:54;;;;;;;;;6.50;5.00;;;;;11.49;61.52;102190.31;5060849;28;45418;-51
2022/02/23 02:17:20;;;;;;;;;10.50;7.00;;;;;11.47;61.40;102187.69;5060883;28;46226;-48
2022/02/23 02:19:46;;;;;;;;;9.00;3.50;;;;;11.46;61.57;102185.91;5060478;28;45251;-50
2022/02/23 02:22:11;;;;;;;;;9.50;6.25;;;;;11.46;61.46;102185.03;5060999;28;45249;-50
2022/02/23 02:24:39;;;;;;;;;8.25;5.00;;;;;11.46;61.58;102199.06;5060743;28;45525;-47
2022/02/23 02:27:08;;;;;;;;;10.50;6.00;;;;;11.46;61.46;102203.44;5060849;28;45408;-47
2022/02/23 02:29:34;;;;;;;;;9.00;5.75;;;;;11.46;61.65;102195.53;5060591;28;45252;-47
2022/02/23 02:32:02;;;;;;;;;8.50;6.00;;;;;11.44;61.36;102181.53;5060783;28;45435;-49
2022/02/23 02:34:27;;;;;;;;;7.25;5.75;;;;;11.46;61.46;102192.91;5060169;28;45611;-50
2022/02/23 02:36:53;;;;;;;;;7.00;6.00;;;;;11.45;61.46;102194.69;5060801;28;45399;-48
2022/02/23 02:39:20;;;;;;;;;8.25;5.75;;;;;11.45;61.48;102188.56;5060500;28;45356;-49
2022/02/23 02:41:45;;;;;;;;;5.25;4.50;;;;;11.45;61.46;102189.41;5060705;28;45355;-48
2022/02/23 02:44:11;;;;;;;;;6.75;4.75;;;;;11.46;61.42;102192.91;5060530;28;45332;-48
2022/02/23 02:46:36;;;;;;;;;7.50;6.50;;;;;11.45;61.34;102183.28;5060450;28;45313;-48
2022/02/23 02:49:03;;;;;;;;;7.75;3.75;;;;;11.44;61.32;102177.13;5060183;28;45465;-47
2022/02/23 02:51:28;;;;;;;;;9.00;6.50;;;;;11.45;61.34;102185.91;5060491;28;45244;-47
2022/02/23 02:53:54;;;;;;;;;11.00;8.25;;;;;11.43;61.43;102183.25;5060295;28;45213;-48
2022/02/23 02:56:20;;;;;;;;;8.00;5.75;;;;;11.33;61.56;102171.81;5060062;28;46435;-49
2022/02/23 02:58:54;;;;;;;;;6.50;6.00;;;;;11.42;61.54;102185.88;5059145;28;46322;-52
2022/02/23 03:01:21;;;;;;;;;8.75;5.00;;;;;11.39;61.35;102178.84;5062480;28;45243;-51
2022/02/23 03:03:47;;;;;;;;;9.50;5.25;;;;;11.37;61.30;102176.22;5064953;28;45188;-52
2022/02/23 03:06:13;;;;;;;;;10.25;6.00;;;;;11.37;61.34;102188.47;5059777;28;45423;-48
2022/02/23 03:08:38;;;;;;;;;8.50;4.25;;;;;11.34;61.32;102191.97;5060016;28;45426;-49
2022/02/23 03:11:04;;;;;;;;;11.50;8.50;;;;;11.32;61.37;102193.75;5059810;28;45275;-51
2022/02/23 03:13:29;;;;;;;;;7.25;5.25;;;;;11.32;61.29;102192.84;5059528;28;45347;-50
2022/02/23 03:15:54;;;;;;;;;8.50;5.00;;;;;11.29;61.43;102192.84;5060089;28;45310;-48
2022/02/23 03:18:20;;;;;;;;;6.75;5.75;;;;;11.26;61.43;102191.06;5060049;28;45270;-52
2022/02/23 03:20:45;;;;;;;;;8.75;4.75;;;;;11.25;61.38;102197.19;5059809;28;45523;-49
2022/02/23 03:23:11;;;;;;;;;10.25;6.00;;;;;11.22;61.32;102186.66;5059973;28;45343;-51
2022/02/23 03:25:36;;;;;;;;;9.50;7.00;;;;;11.20;61.52;102188.41;5058553;28;47046;-52
2022/02/23 03:28:01;;;;;;;;;7.25;6.00;;;;;11.18;61.29;102203.28;5059866;28;45379;-51
2022/02/23 03:30:27;;;;;;;;;16.75;7.00;;;;;11.15;61.18;102200.66;5059964;28;45452;-53
2022/02/23 03:32:52;;;;;;;;;6.00;6.00;;;;;11.12;61.16;102200.59;5059759;28;45391;-51
2022/02/23 03:35:20;;;;;;;;;9.75;6.00;;;;;11.09;61.37;102200.59;5059615;28;45263;-52
2022/02/23 03:37:45;;;;;;;;;6.50;4.50;;;;;11.05;61.34;102200.56;5059785;28;45473;-49
2022/02/23 03:40:11;;;;;;;;;13.00;3.75;;;;;11.02;61.20;102194.44;5059667;28;45504;-48
2022/02/23 03:42:37;;;;;;;;;8.25;6.00;;;;;10.98;61.07;102196.16;5059701;28;45265;-52
2022/02/23 03:45:02;;;;;;;;;7.75;5.75;;;;;10.98;61.19;102209.31;5059741;28;45412;-52
2022/02/23 03:47:28;;;;;;;;;9.00;5.75;;;;;10.97;61.28;102202.28;5059643;28;45323;-53
2022/02/23 03:49:53;;;;;;;;;9.75;5.00;;;;;10.93;61.36;102196.97;5059557;28;45379;-50
2022/02/23 03:52:21;;;;;;;;;6.50;4.25;;;;;10.94;61.36;102209.25;5059636;28;45441;-51
2022/02/23 03:54:46;;;;;;;;;4.50;4.00;;;;;10.90;61.22;102203.09;5059492;28;45421;-49
2022/02/23 03:57:11;;;;;;;;;7.75;4.25;;;;;10.87;61.27;102197.81;5058060;28;45342;-49
2022/02/23 03:59:37;;;;;;;;;8.00;5.50;;;;;10.86;61.26;102210.06;5059777;28;45283;-49
2022/02/23 04:02:02;;;;;;;;;9.50;5.25;;;;;10.83;61.31;102210.06;5066617;28;45519;-50
2022/02/23 04:04:28;;;;;;;;;7.25;5.25;;;;;10.83;61.23;102211.78;5059261;28;46508;-52
2022/02/23 04:06:53;;;;;;;;;7.00;3.50;;;;;10.81;61.15;102203.03;5059195;28;45240;-52
2022/02/23 04:09:19;;;;;;;;;14.75;5.75;;;;;10.81;61.24;102208.28;5059412;28;45154;-50
2022/02/23 04:11:44;;;;;;;;;6.75;5.50;;;;;10.76;61.19;102199.47;5059295;28;45394;-52
2022/02/23 04:14:10;;;;;;;;;10.00;8.00;;;;;10.73;61.25;102201.22;5059297;28;45232;-49
2022/02/23 04:16:35;;;;;;;;;9.50;6.00;;;;;10.71;61.27;102200.31;5059251;28;45214;-52
2022/02/23 04:19:02;;;;;;;;;6.50;3.00;;;;;10.71;61.13;102202.06;5059393;28;45292;-52
2022/02/23 04:21:29;;;;;;;;;10.50;4.75;;;;;10.68;61.21;102195.03;5057891;28;45527;-52
2022/02/23 04:23:54;;;;;;;;;7.50;5.50;;;;;10.67;61.33;102193.25;5061029;28;46181;-52
2022/02/23 04:26:20;;;;;;;;;9.75;4.75;;;;;10.66;61.13;102193.25;5062494;28;45315;-51
2022/02/23 04:28:46;;;;;;;;;6.25;5.50;;;;;10.65;61.15;102195.00;5062927;28;45350;-52
2022/02/23 04:31:11;;;;;;;;;8.25;5.50;;;;;10.65;61.29;102196.75;5062437;28;45319;-48
2022/02/23 04:33:37;;;;;;;;;9.75;6.75;;;;;10.63;61.33;102196.75;5062631;28;45379;-55
2022/02/23 04:36:05;;;;;;;;;9.50;6.50;;;;;10.62;61.26;102204.63;5062143;28;45289;-52
2022/02/23 04:38:30;;;;;;;;;6.75;5.75;;;;;10.61;61.03;102202.84;5062585;28;45238;-49
2022/02/23 04:40:56;;;;;;;;;11.75;6.50;;;;;10.58;61.28;102198.44;5062169;28;45403;-51
2022/02/23 04:43:21;;;;;;;;;7.75;6.00;;;;;10.57;61.28;102201.94;5062460;28;46501;-47
2022/02/23 04:45:47;;;;;;;;;9.50;7.25;;;;;10.55;61.28;102209.81;5062464;28;45278;-49
2022/02/23 04:48:13;;;;;;;;;8.00;6.00;;;;;10.53;61.17;102200.16;5062721;28;46300;-51
2022/02/23 04:50:39;;;;;;;;;11.25;6.00;;;;;10.51;61.26;102209.78;5062070;28;45633;-48
2022/02/23 04:53:04;;;;;;;;;10.00;5.75;;;;;10.47;61.07;102208.00;5060813;28;47442;-51
2022/02/23 04:55:30;;;;;;;;;5.75;5.75;;;;;10.46;61.04;102201.84;5062110;28;45355;-50
2022/02/23 04:57:55;;;;;;;;;7.00;5.75;;;;;10.45;61.25;102205.31;5062499;28;45359;-49
2022/02/23 05:00:21;;;;;;;;;13.75;7.25;;;;;10.44;61.10;102197.44;5062080;28;45332;-48
2022/02/23 05:02:46;;;;;;;;;9.00;7.75;;;;;10.40;61.01;102199.13;5068860;28;45324;-49
2022/02/23 05:05:11;;;;;;;;;11.75;6.25;;;;;10.37;61.01;102205.25;5061985;28;45323;-51
2022/02/23 05:07:37;;;;;;;;;9.00;5.00;;;;;10.36;61.08;102206.16;5060666;28;45336;-48
2022/02/23 05:10:03;;;;;;;;;4.00;2.00;;;;;10.33;61.06;102206.06;5062041;28;45299;-49
2022/02/23 05:12:30;;;;;;;;;10.50;7.00;;;;;10.31;61.23;102212.16;5061835;28;45221;-50
2022/02/23 05:14:55;;;;;;;;;5.50;5.00;;;;;10.30;60.99;102218.28;5062067;28;45318;-52
2022/02/23 05:17:21;;;;;;;;;10.00;7.25;;;;;10.27;61.20;102208.63;5062064;28;45243;-51
2022/02/23 05:19:46;;;;;;;;;5.50;5.50;;;;;10.23;61.34;102196.31;5061662;28;45201;-48
2022/02/23 05:22:12;;;;;;;;;7.50;6.00;;;;;10.22;61.21;102202.44;5061744;28;45968;-51
2022/02/23 05:24:38;;;;;;;;;6.50;4.75;;;;;10.20;61.03;102207.69;5061852;28;45406;-52
2022/02/23 05:27:04;;;;;;;;;13.75;7.75;;;;;10.15;60.99;102208.47;5060610;28;45277;-51
2022/02/23 05:29:33;;;;;;;;;7.75;6.00;;;;;10.13;61.11;102202.34;5061836;28;45227;-49
2022/02/23 05:31:59;;;;;;;;;9.75;6.00;;;;;10.12;61.09;102204.06;5061644;28;46315;-52
2022/02/23 05:34:24;;;;;;;;;12.00;10.00;;;;;10.11;61.03;102209.31;5060869;28;45214;-52
2022/02/23 05:36:50;;;;;;;;;11.75;6.00;;;;;10.07;61.06;102209.31;5061687;28;45565;-49
2022/02/23 05:39:16;;;;;;;;;8.75;7.50;;;;;10.06;61.37;102212.78;5061593;28;45146;-50
2022/02/23 05:41:42;;;;;;;;;8.00;6.00;;;;;10.03;61.08;102215.38;5061373;28;45318;-52
2022/02/23 05:44:07;;;;;;;;;8.00;7.00;;;;;10.03;61.13;102214.50;5060181;28;45355;-50
2022/02/23 05:46:33;;;;;;;;;7.75;7.00;;;;;10.01;61.12;102218.84;5061598;28;45669;-52
2022/02/23 05:48:58;;;;;;;;;6.00;5.50;;;;;9.99;61.08;102223.22;5061190;28;45310;-51
2022/02/23 05:51:25;;;;;;;;;12.50;7.75;;;;;9.97;61.18;102225.78;5061230;28;46053;-51
2022/02/23 05:53:51;;;;;;;;;13.00;7.50;;;;;9.95;61.30;102222.28;5061119;28;45312;-49
2022/02/23 05:56:16;;;;;;;;;7.25;5.75;;;;;9.93;61.20;102226.63;5061373;28;45319;-50
2022/02/23 05:58:41;;;;;;;;;13.75;9.25;;;;;9.91;61.21;102230.97;5059885;28;45476;-52
2022/02/23 06:01:10;;;;;;;;;14.00;11.75;;;;;9.89;60.81;102230.97;5061638;28;46122;-49
2022/02/23 06:03:35;;;;;;;;;12.75;7.50;;;;;9.85;61.15;102225.63;5066941;28;45330;-50
2022/02/23 06:06:01;;;;;;;;;12.00;7.75;;;;;9.84;61.02;102231.78;5060985;28;45418;-51
2022/02/23 06:08:26;;;;;;;;;11.25;11.25;;;;;9.83;61.13;102235.25;5059634;28;45508;-50
2022/02/23 06:10:52;;;;;;;;;7.75;6.00;;;;;9.79;61.12;102242.22;5060845;28;46131;-49
2022/02/23 06:13:17;;;;;;;;;14.00;8.00;;;;;9.79;61.05;102246.59;5061230;28;45241;-51
2022/02/23 06:15:42;;;;;;;;;11.75;10.50;;;;;9.73;61.28;102237.75;5061013;28;45340;-49
2022/02/23 06:18:08;;;;;;;;;25.25;21.75;;;;;9.73;61.29;102237.75;5061033;28;45257;-53
2022/02/23 06:20:33;;;;;;;;;20.50;13.25;;;;;9.71;61.18;102239.50;5060412;28;46692;-52
2022/02/23 06:22:58;;;;;;;;;18.00;15.50;;;;;9.69;61.02;102232.47;5061078;28;45405;-53
2022/02/23 06:25:24;;;;;;;;;12.25;11.00;;;;;9.67;61.08;102236.78;5060904;28;45471;-51
2022/02/23 06:27:49;;;;;;;;;11.50;8.50;;;;;9.65;61.29;102234.16;5060796;28;45398;-51
2022/02/23 06:30:15;;;;;;;;;15.50;12.50;;;;;9.63;61.28;102230.63;5060505;28;46182;-49
2022/02/23 06:32:40;;;;;;;;;12.25;8.75;;;;;9.60;61.13;102241.97;5060814;28;45303;-52
2022/02/23 06:35:06;;;;;;;;;11.00;10.50;;;;;9.58;61.18;102242.78;5060556;28;45316;-49
2022/02/23 06:37:31;;;;;;;;;15.50;10.25;;;;;9.57;61.29;102254.16;5060516;28;45263;-50
2022/02/23 06:39:57;;;;;;;;;17.50;15.00;;;;;9.52;60.83;102251.47;5060113;28;45738;-49
2022/02/23 06:42:23;;;;;;;;;14.50;12.25;;;;;9.54;61.04;102256.75;5060592;28;45430;-50
2022/02/23 06:44:49;;;;;;;;;14.75;9.25;;;;;9.50;61.09;102265.44;5059381;28;45352;-50
2022/02/23 06:47:17;;;;;;;;;13.25;11.00;;;;;9.47;61.42;102268.00;5059439;28;45231;-48
2022/02/23 06:49:42;;;;;;;;;13.75;12.75;;;;;9.47;61.14;102268.91;5060166;28;46502;-53
2022/02/23 06:52:09;;;;;;;;;17.50;13.25;;;;;9.44;61.16;102271.47;5060302;28;45308;-52
2022/02/23 06:54:34;;;;;;;;;13.25;10.25;;;;;9.41;61.17;102276.69;5060436;28;45323;-50
2022/02/23 06:56:59;;;;;;;;;16.25;13.25;;;;;9.40;61.33;102272.28;5058898;28;45335;-48
2022/02/23 06:59:25;;;;;;;;;18.00;14.00;;;;;9.38;61.22;102272.28;5060167;28;45366;-51
2022/02/23 07:01:51;;;;;;;;;15.00;14.25;;;;;9.37;61.33;102282.72;5066688;28;45372;-52
2022/02/23 07:04:16;;;;;;;;;17.50;14.00;;;;;9.35;61.46;102289.72;5060163;28;45292;-47
2022/02/23 07:06:42;;;;;;;;;15.00;12.00;;;;;9.33;61.29;102284.41;5058593;28;45360;-52
2022/02/23 07:09:08;;;;;;;;;12.75;12.00;;;;;9.31;61.43;102283.53;5059792;28;46298;-49
2022/02/23 07:11:36;;;;;;;;;16.50;15.00;;;;;9.31;61.40;102293.13;5059921;28;45317;-51
2022/02/23 07:14:03;;;;;;;;;19.00;18.00;;;;;9.29;61.27;102287.84;5059964;28;45328;-51
2022/02/23 07:16:29;;;;;;;;;31.50;26.50;;;;;9.24;61.56;102282.56;5059870;28;45520;-47
2022/02/23 07:18:55;;;;;;;;;28.50;24.00;;;;;9.25;61.25;102280.81;5059661;28;47373;-51
2022/02/23 07:21:20;;;;;;;;;24.25;18.75;;;;;9.22;61.38;102284.25;5059737;28;45368;-52
2022/02/23 07:23:46;;;;;;;;;16.00;14.75;;;;;9.21;61.43;102289.50;5060293;28;45311;-50
2022/02/23 07:26:14;;;;;;;;;15.50;14.00;;;;;9.20;61.45;102288.59;5059886;28;45520;-47
2022/02/23 07:28:40;;;;;;;;;17.50;13.75;;;;;9.16;61.47;102280.66;5059602;28;45512;-48
2022/02/23 07:31:07;;;;;;;;;21.75;17.00;;;;;9.18;61.49;102289.44;5059640;28;45342;-48
2022/02/23 07:33:35;;;;;;;;;20.75;17.50;;;;;9.17;61.34;102292.91;5059862;28;45418;-49
2022/02/23 07:36:00;;;;;;;;;21.75;17.00;;;;;9.18;61.55;102290.31;5059520;28;46200;-48
2022/02/23 07:38:26;;;;;;;;;15.50;13.25;;;;;9.14;61.46;102282.38;5059562;28;46120;-47
2022/02/23 07:40:51;;;;;;;;;20.00;15.25;;;;;9.14;61.60;102292.88;5059603;28;45339;-51
2022/02/23 07:43:16;;;;;;;;;19.00;15.50;;;;;9.15;61.38;102294.63;5060019;28;45409;-49
2022/02/23 07:45:42;;;;;;;;;22.50;20.50;;;;;9.15;61.64;102300.75;5059930;28;45280;-48
2022/02/23 07:48:08;;;;;;;;;25.00;19.50;;;;;9.15;61.59;102292.88;5059669;28;45318;-47
2022/02/23 07:50:34;;;;;;;;;16.75;16.50;;;;;9.12;61.44;102300.72;5059377;28;45220;-51
2022/02/23 07:53:00;;;;;;;;;25.75;18.75;;;;;9.12;61.79;102298.09;5059703;28;45295;-49
2022/02/23 07:55:26;;;;;;;;;21.00;15.25;;;;;9.13;61.63;102304.19;5059621;28;45238;-49
2022/02/23 07:57:52;;;;;;;;;21.00;17.50;;;;;9.13;61.61;102296.34;5060084;28;45444;-49
2022/02/23 08:00:20;;;;;;;;;15.75;15.00;;;;;9.10;61.61;102298.03;5062857;28;45331;-52
2022/02/23 08:02:45;;;;;;;;;28.00;24.25;;;;;9.10;61.86;102299.78;5070011;28;45524;-50
2022/02/23 08:05:11;;;;;;;;;21.50;20.25;;;;;9.07;61.92;102290.13;5061431;28;45832;-52
2022/02/23 08:07:36;;;;;;;;;21.50;20.75;;;;;9.10;61.83;102303.28;5062874;28;45304;-51
2022/02/23 08:10:03;;;;;;;;;30.75;25.25;;;;;9.13;61.82;102301.59;5061463;28;45336;-51
2022/02/23 08:12:28;;;;;;;;;27.00;26.75;;;;;9.12;62.09;102305.97;5063103;28;45275;-51
2022/02/23 08:14:55;;;;;;;;;21.00;19.00;;;;;9.13;61.98;102293.72;5062744;28;45168;-52
2022/02/23 08:20:07;;;;;;;;;23.00;20.50;;;;;9.13;61.90;102291.97;5062266;28;45291;-48
2022/02/23 08:22:32;;;;;;;;;21.50;20.25;;;;;9.16;61.95;102292.03;5061744;28;45232;-51
2022/02/23 08:24:58;;;;;;;;;27.25;22.50;;;;;9.16;61.91;102291.16;5062434;28;45575;-49
2022/02/23 08:27:25;;;;;;;;;26.25;20.75;;;;;9.21;62.10;102303.47;5062560;28;46991;-52
2022/02/23 08:29:53;;;;;;;;;23.25;22.00;;;;;9.22;61.95;102294.75;5062417;28;45395;-49
2022/02/23 08:32:20;;;;;;;;;21.50;20.75;;;;;9.25;62.03;102302.66;5062594;28;45469;-52
2022/02/23 08:34:47;;;;;;;;;24.75;18.50;;;;;9.27;62.35;102300.09;5062128;28;45292;-49
2022/02/23 08:37:15;;;;;;;;;26.25;19.25;;;;;9.32;62.02;102306.28;5062369;28;45430;-50
2022/02/23 08:39:42;;;;;;;;;23.50;16.00;;;;;9.34;62.10;102312.41;5062135;28;45354;-50
2022/02/23 08:42:10;;;;;;;;;23.25;21.50;;;;;9.37;62.20;102307.25;5062506;28;45328;-49
2022/02/23 08:44:36;;;;;;;;;27.50;21.50;;;;;9.40;62.26;102315.16;5060908;28;45384;-52
2022/02/23 08:47:02;;;;;;;;;27.25;25.25;;;;;9.41;62.27;102314.28;5061012;28;46857;-52
2022/02/23 08:49:28;;;;;;;;;24.50;23.50;;;;;9.45;62.16;102320.47;5061863;28;45380;-51
2022/02/23 08:51:53;;;;;;;;;24.00;23.50;;;;;9.50;62.18;102313.56;5062360;28;45454;-51
2022/02/23 08:54:20;;;;;;;;;27.25;22.75;;;;;9.54;62.29;102319.72;5062108;28;45377;-51
2022/02/23 08:56:46;;;;;;;;;27.00;24.00;;;;;9.57;62.47;102317.13;5062144;28;45374;-52
2022/02/23 08:59:12;;;;;;;;;31.25;24.75;;;;;9.60;62.31;102314.59;5060688;28;45271;-52
2022/02/23 09:01:38;;;;;;;;;25.75;21.25;;;;;9.65;62.50;102312.00;5065485;28;45419;-52
2022/02/23 09:04:04;;;;;;;;;24.75;22.25;;;;;9.68;62.33;102319.94;5064246;28;45169;-52
2022/02/23 09:06:32;;;;;;;;;25.00;22.00;;;;;9.71;62.62;102309.47;5060525;28;47008;-51
2022/02/23 09:08:59;;;;;;;;;23.50;20.00;;;;;9.82;62.34;102313.13;5060141;28;45359;-50
2022/02/23 09:11:24;;;;;;;;;27.50;25.00;;;;;9.87;62.20;102303.59;5061327;28;45383;-52
2022/02/23 09:13:50;;;;;;;;;23.00;22.75;;;;;9.92;62.70;102303.63;5061881;28;45230;-49
2022/02/23 09:16:15;;;;;;;;;24.50;19.75;;;;;9.99;62.61;102299.38;5061821;28;45309;-50
2022/02/23 09:18:41;;;;;;;;;30.25;21.25;;;;;10.05;62.40;102292.44;5061533;28;45329;-48
2022/02/23 09:21:07;;;;;;;;;27.00;21.00;;;;;10.15;62.53;102303.97;5061825;28;45405;-49
2022/02/23 09:23:32;;;;;;;;;27.75;20.75;;;;;10.20;62.49;102294.38;5060522;28;45347;-48
2022/02/23 09:25:58;;;;;;;;;23.50;19.50;;;;;10.22;62.59;102287.38;5061548;28;45166;-50
2022/02/23 09:28:24;;;;;;;;;26.75;18.25;;;;;10.35;62.49;102300.66;5060369;28;45292;-51
2022/02/23 09:30:50;;;;;;;;;31.00;23.25;;;;;10.44;62.64;102294.66;5061711;28;45507;-50
2022/02/23 09:33:15;;;;;;;;;28.50;25.25;;;;;10.51;62.56;102280.75;5061527;28;45238;-52
2022/02/23 09:35:42;;;;;;;;;24.25;19.75;;;;;10.62;62.49;102286.13;5061226;28;45918;-51
2022/02/23 09:38:07;;;;;;;;;20.50;19.50;;;;;10.70;62.57;102284.44;5061584;28;45312;-50
2022/02/23 09:40:35;;;;;;;;;41.50;32.50;;;;;10.77;62.65;102286.25;5060006;28;45367;-51
2022/02/23 09:43:01;;;;;;;;;36.25;33.25;;;;;10.89;62.50;102293.38;5061440;28;45325;-51
2022/02/23 09:45:28;;;;;;;;;29.75;26.50;;;;;10.99;62.58;102287.34;5060091;28;47845;-52
2022/02/23 09:47:54;;;;;;;;;32.00;25.75;;;;;11.11;62.64;102291.81;5061390;28;45198;-52
2022/02/23 09:50:21;;;;;;;;;32.25;27.50;;;;;11.20;62.64;102283.13;5061271;28;45579;-51
2022/02/23 09:52:51;;;;;;;;;34.50;31.00;;;;;11.33;62.59;102284.09;5061268;28;45228;-49
2022/02/23 09:55:18;;;;;;;;;32.00;22.25;;;;;11.46;62.62;102285.94;5061167;28;46841;-53
2022/02/23 09:57:43;;;;;;;;;35.75;29.25;;;;;11.58;62.49;102273.72;5061278;28;45324;-51
2022/02/23 10:00:10;;;;;;;;;22.50;20.25;;;;;11.69;62.69;102261.50;5061238;28;45327;-51
2022/02/23 10:02:36;;;;;;;;;20.25;17.75;;;;;11.84;62.46;102260.72;5068356;28;45240;-53
2022/02/23 10:05:03;;;;;;;;;26.25;21.50;;;;;11.96;62.61;102263.44;5061007;28;46315;-50
2022/02/23 10:07:31;;;;;;;;;29.50;26.50;;;;;12.09;62.56;102266.09;5060764;28;45448;-50
2022/02/23 10:10:00;;;;;;;;;23.50;21.00;;;;;12.21;62.73;102260.00;5061034;28;45424;-53
2022/02/23 10:12:26;;;;;;;;;16.75;14.00;;;;;12.33;62.58;102252.13;5060942;28;45524;-52
2022/02/23 10:15:18;;;;;;;;;18.75;14.00;;;;;12.46;62.73;102259.19;5060845;28;47026;-50
2022/02/23 10:17:47;;;;;;;;;21.75;18.25;;;;;12.57;62.79;102253.06;5059589;28;45269;-48
2022/02/23 10:20:28;;;;;;;;;15.25;14.25;;;;;12.68;62.73;102251.34;5059183;28;45458;-51
2022/02/23 10:22:59;;;;;;;;;19.75;13.75;;;;;12.76;62.28;102246.94;5060785;28;45549;-51
2022/02/23 10:25:27;;;;;;;;;16.50;16.25;;;;;12.90;62.25;102251.34;5060841;28;45434;-54
2022/02/23 10:28:37;;;;;;;;;18.00;14.25;;;;;13.01;62.50;102242.53;5060786;28;45371;-51
2022/02/23 10:31:09;;;;;;;;;13.25;9.00;;;;;13.07;62.42;102243.41;5038509;28;45517;-53
2022/02/23 10:33:37;;;;;;;;;19.00;18.50;;;;;13.20;62.11;102250.44;5056913;28;45331;-53
2022/02/23 10:36:18;;;;;;;;;22.25;14.50;;;;;13.31;62.03;102253.94;5059328;28;45788;-53
2022/02/23 10:38:47;;;;;;;;;17.50;14.25;;;;;13.43;61.53;102253.09;5060710;28;45272;-52
2022/02/23 10:41:23;;;;;;;;;14.50;12.25;;;;;13.50;61.68;102243.38;5060642;28;45237;-54
2022/02/23 10:43:48;;;;;;;;;12.50;6.25;;;;;13.60;61.42;102246.88;5060494;28;45414;-49
2022/02/23 10:46:16;;;;;;;;;13.25;11.00;;;;;13.67;61.34;102242.44;5060241;28;45383;-52
2022/02/23 10:48:44;;;;;;;;;12.75;11.00;;;;;13.75;61.15;102251.25;5060432;28;45435;-54
2022/02/23 10:51:15;;;;;;;;;10.00;9.50;;;;;13.81;61.19;102241.53;5060518;28;45397;-52
2022/02/23 10:53:40;;;;;;;;;17.50;11.75;;;;;13.87;61.46;102247.66;5060406;28;45326;-53
2022/02/23 10:56:25;;;;;;;;;21.50;19.00;;;;;13.92;60.76;102236.22;5060122;28;46116;-52
2022/02/23 10:59:11;;;;;;;;;20.00;15.00;;;;;14.03;61.21;102230.00;5060430;28;45268;-53
2022/02/23 11:01:38;;;;;;;;;11.75;9.00;;;;;14.09;60.91;102225.53;5063640;28;45304;-54
2022/02/23 11:04:05;;;;;;;;;10.00;8.50;;;;;14.17;60.82;102224.63;5061656;28;45300;-53
2022/02/23 11:06:30;;;;;;;;;8.50;7.00;;;;;14.20;60.94;102217.56;5060154;28;45369;-54
2022/02/23 11:08:56;;;;;;;;;6.25;5.50;;;;;14.25;60.54;102218.41;5059853;28;45157;-52
2022/02/23 11:11:24;;;;;;;;;11.00;5.25;;;;;14.34;60.47;102217.47;5060427;28;45260;-50
2022/02/23 11:13:50;;;;;;;;;9.50;8.50;;;;;14.41;60.71;102219.16;5060192;28;45317;-52
2022/02/23 11:16:17;;;;;;;;;14.75;7.25;;;;;14.48;60.71;102214.72;5060039;28;45353;-52
2022/02/23 11:18:45;;;;;;;;;9.50;7.00;;;;;14.53;60.55;102212.94;5058631;28;45464;-51